createdAt,value
2023-05-01T00:01:18.896Z,11.10
2023-05-01T00:06:20.649Z,12.97
2023-05-01T00:11:22.825Z,15.20
2023-05-01T00:16:24.642Z,12.30
2023-05-01T00:21:28.300Z,11.60
2023-05-01T00:26:31.228Z,17.53
2023-05-01T00:31:33.308Z,12.67
2023-05-01T00:36:35.108Z,11.70
2023-05-01T00:41:36.919Z,11.00
2023-05-01T00:46:39.083Z,10.30
2023-05-01T00:51:41.677Z,11.33
2023-05-01T00:56:43.408Z,9.00
2023-05-01T01:01:45.181Z,10.90
2023-05-01T01:06:58.627Z,9.00
2023-05-01T01:12:25.890Z,10.10
2023-05-01T01:17:53.161Z,9.87
2023-05-01T01:23:13.452Z,11.40
2023-05-01T01:28:39.017Z,9.97
2023-05-01T01:33:56.132Z,10.33
2023-05-01T01:39:11.879Z,9.47
2023-05-01T01:44:21.227Z,9.57
2023-05-01T01:49:26.408Z,10.40
2023-05-01T01:54:36.431Z,11.87
2023-05-01T01:59:40.727Z,10.37
2023-05-01T02:04:44.162Z,11.23
2023-05-01T02:09:47.199Z,13.87
2023-05-01T02:14:51.467Z,9.83
2023-05-01T02:19:55.353Z,10.70
2023-05-01T02:25:00.017Z,8.57
2023-05-01T02:30:02.024Z,11.07
2023-05-01T02:35:04.016Z,11.33
2023-05-01T02:40:07.519Z,11.17
2023-05-01T02:45:14.042Z,10.43
2023-05-01T02:50:16.668Z,10.23
2023-05-01T02:55:18.498Z,10.23
2023-05-01T03:00:20.809Z,10.67
2023-05-01T03:05:23.030Z,10.13
2023-05-01T03:10:24.985Z,9.93
2023-05-01T03:15:26.731Z,10.47
2023-05-01T03:20:29.125Z,10.57
2023-05-01T03:25:30.812Z,11.67
2023-05-01T03:30:35.230Z,10.70
2023-05-01T03:35:37.008Z,10.80
2023-05-01T03:40:38.766Z,10.53
2023-05-01T03:45:41.717Z,9.90
2023-05-01T03:50:45.223Z,10.63
2023-05-01T03:55:46.908Z,13.20
2023-05-01T04:00:48.560Z,9.80
2023-05-01T04:05:50.263Z,10.97
2023-05-01T04:10:51.942Z,10.93
2023-05-01T04:15:55.825Z,12.57
2023-05-01T04:20:57.653Z,11.07
2023-05-01T04:25:59.363Z,10.67
2023-05-01T04:31:01.236Z,12.40
2023-05-01T04:36:02.966Z,10.30
2023-05-01T04:41:07.718Z,10.67
2023-05-01T04:46:09.461Z,12.53
2023-05-01T04:51:11.164Z,11.87
2023-05-01T04:56:12.933Z,12.27
2023-05-01T05:01:14.635Z,11.80
2023-05-01T05:06:16.342Z,17.43
2023-05-01T05:11:18.979Z,15.17
2023-05-01T05:16:20.686Z,16.03
2023-05-01T05:21:22.446Z,14.97
2023-05-01T05:26:24.911Z,12.63
2023-05-01T05:31:26.944Z,11.03
2023-05-01T05:36:28.770Z,11.37
2023-05-01T05:41:30.420Z,11.83
2023-05-01T05:46:32.214Z,11.80
2023-05-01T05:51:33.975Z,12.10
2023-05-01T05:56:35.751Z,14.20
2023-05-01T06:01:37.795Z,12.67
2023-05-01T06:06:39.586Z,14.23
2023-05-01T06:11:41.376Z,17.13
2023-05-01T06:16:43.228Z,14.50
2023-05-01T06:21:44.949Z,15.27
2023-05-01T06:26:46.594Z,16.20
2023-05-01T06:31:48.348Z,16.47
2023-05-01T06:36:50.028Z,16.40
2023-05-01T06:41:51.707Z,16.40
2023-05-01T06:46:53.390Z,15.00
2023-05-01T06:51:55.058Z,17.07
2023-05-01T06:56:56.747Z,19.13
2023-05-01T07:01:58.537Z,15.43
2023-05-01T07:07:01.026Z,16.43
2023-05-01T07:12:03.192Z,16.07
2023-05-01T07:17:05.771Z,19.23
2023-05-01T07:22:07.420Z,14.60
2023-05-01T07:27:09.129Z,16.80
2023-05-01T07:32:10.894Z,18.00
2023-05-01T07:37:12.678Z,18.17
2023-05-01T07:42:14.308Z,17.87
2023-05-01T07:47:15.959Z,15.77
2023-05-01T07:52:17.603Z,14.23
2023-05-01T07:57:19.344Z,14.03
2023-05-01T08:02:21.009Z,14.33
2023-05-01T08:07:22.794Z,16.03
2023-05-01T08:12:24.494Z,16.07
2023-05-01T08:17:26.339Z,16.97
2023-05-01T08:22:28.225Z,19.10
2023-05-01T08:27:29.947Z,17.67
2023-05-01T08:32:32.351Z,18.90
2023-05-01T08:37:34.565Z,18.20
2023-05-01T08:42:38.699Z,17.13
2023-05-01T08:47:40.815Z,15.00
2023-05-01T08:52:43.629Z,17.20
2023-05-01T08:57:46.690Z,16.47
2023-05-01T09:02:50.819Z,18.03
2023-05-01T09:07:52.820Z,15.03
2023-05-01T09:13:00.782Z,12.63
2023-05-01T09:18:03.792Z,11.47
2023-05-01T09:23:06.515Z,11.27
2023-05-01T09:28:08.471Z,8.83
2023-05-01T09:33:14.936Z,9.83
2023-05-01T09:38:29.056Z,10.03
2023-05-01T09:43:31.575Z,8.27
2023-05-01T09:48:35.755Z,7.97
2023-05-01T09:53:39.322Z,7.83
2023-05-01T09:58:41.108Z,8.27
2023-05-01T10:03:45.132Z,10.17
2023-05-01T10:08:50.922Z,8.50
2023-05-01T10:14:09.759Z,7.13
2023-05-01T10:19:11.748Z,6.73
2023-05-01T10:24:15.203Z,7.63
2023-05-01T10:29:18.807Z,6.63
2023-05-01T10:34:24.488Z,5.80
2023-05-01T10:39:35.426Z,6.10
2023-05-01T10:44:37.787Z,7.57
2023-05-01T10:50:17.948Z,6.50
2023-05-01T10:55:33.771Z,6.83
2023-05-01T11:00:35.535Z,6.90
2023-05-01T11:05:55.929Z,7.83
2023-05-01T11:10:57.851Z,7.33
2023-05-01T11:16:19.598Z,8.17
2023-05-01T11:21:34.130Z,6.70
2023-05-01T11:26:40.850Z,7.13
2023-05-01T11:31:42.609Z,7.47
2023-05-01T11:36:50.283Z,9.20
2023-05-01T11:42:09.652Z,7.10
2023-05-01T11:47:11.553Z,7.13
2023-05-01T11:52:13.231Z,9.10
2023-05-01T11:57:15.051Z,8.33
2023-05-01T12:02:20.641Z,9.17
2023-05-01T12:07:23.173Z,7.20
2023-05-01T12:12:25.039Z,7.83
2023-05-01T12:17:28.353Z,7.33
2023-05-01T12:22:30.417Z,9.53
2023-05-01T12:27:33.002Z,8.90
2023-05-01T12:32:34.972Z,9.97
2023-05-01T12:37:37.648Z,8.27
2023-05-01T12:42:39.606Z,7.67
2023-05-01T12:47:41.417Z,7.70
2023-05-01T12:52:43.570Z,8.07
2023-05-01T12:57:54.882Z,8.43
2023-05-01T13:03:04.375Z,12.37
2023-05-01T13:08:06.758Z,9.37
2023-05-01T13:13:08.449Z,11.27
2023-05-01T13:18:10.228Z,9.47
2023-05-01T13:23:15.336Z,9.97
2023-05-01T13:28:20.876Z,9.13
2023-05-01T13:33:22.571Z,9.63
2023-05-01T13:38:25.061Z,9.70
2023-05-01T13:43:26.952Z,10.00
2023-05-01T13:48:31.001Z,8.63
2023-05-01T13:53:32.871Z,12.10
2023-05-01T13:58:34.676Z,9.40
2023-05-01T14:03:41.107Z,9.57
2023-05-01T14:08:44.411Z,9.50
2023-05-01T14:13:47.790Z,10.33
2023-05-01T14:18:49.647Z,9.43
2023-05-01T14:23:55.210Z,8.40
2023-05-01T14:28:56.930Z,9.43
2023-05-01T14:34:02.103Z,9.20
2023-05-01T14:39:05.136Z,10.13
2023-05-01T14:44:06.803Z,8.60
2023-05-01T14:49:08.497Z,8.90
2023-05-01T14:54:11.502Z,9.13
2023-05-01T14:59:13.843Z,9.20
2023-05-01T15:04:15.730Z,9.67
2023-05-01T15:09:17.580Z,8.67
2023-05-01T15:14:19.246Z,7.80
2023-05-01T15:19:22.482Z,9.37
2023-05-01T15:24:24.331Z,8.83
2023-05-01T15:29:26.480Z,8.97
2023-05-01T15:34:28.649Z,8.80
2023-05-01T15:39:30.442Z,10.73
2023-05-01T15:44:33.605Z,10.87
2023-05-01T15:49:35.347Z,8.33
2023-05-01T15:54:37.547Z,8.57
2023-05-01T15:59:40.501Z,9.00
2023-05-01T16:04:46.399Z,9.07
2023-05-01T16:09:48.125Z,8.97
2023-05-01T16:14:49.905Z,8.20
2023-05-01T16:19:52.728Z,9.43
2023-05-01T16:24:54.800Z,8.63
2023-05-01T16:29:56.807Z,7.63
2023-05-01T16:34:58.756Z,7.87
2023-05-01T16:40:01.157Z,7.80
2023-05-01T16:45:05.283Z,8.90
2023-05-01T16:50:09.837Z,9.03
2023-05-01T16:55:11.920Z,10.00
2023-05-01T17:00:15.126Z,16.77
2023-05-01T17:05:16.954Z,10.23
2023-05-01T17:10:18.724Z,9.33
2023-05-01T17:15:20.383Z,9.90
2023-05-01T17:20:22.704Z,11.07
2023-05-01T17:25:24.538Z,13.83
2023-05-01T17:30:26.346Z,11.33
2023-05-01T17:35:28.249Z,9.17
2023-05-01T17:40:30.596Z,8.67
2023-05-01T17:45:32.495Z,9.90
2023-05-01T17:50:34.305Z,14.17
2023-05-01T17:55:38.305Z,9.07
2023-05-01T18:00:40.529Z,12.03
2023-05-01T18:05:42.248Z,9.70
2023-05-01T18:10:43.913Z,11.07
2023-05-01T18:15:45.889Z,11.20
2023-05-01T18:20:48.488Z,12.70
2023-05-01T18:25:50.902Z,8.40
2023-05-01T18:30:52.614Z,10.93
2023-05-01T18:35:54.293Z,8.87
2023-05-01T18:40:56.006Z,9.53
2023-05-01T18:45:58.989Z,10.40
2023-05-01T18:51:08.471Z,11.20
2023-05-01T18:56:10.891Z,10.77
2023-05-01T19:01:12.610Z,11.07
2023-05-01T19:06:14.411Z,11.73
2023-05-01T19:11:16.472Z,11.53
2023-05-01T19:16:18.212Z,14.20
2023-05-01T19:21:20.166Z,10.20
2023-05-01T19:26:23.163Z,11.97
2023-05-01T19:31:25.311Z,11.67
2023-05-01T19:36:27.070Z,11.97
2023-05-01T19:41:28.870Z,12.90
2023-05-01T19:46:30.756Z,12.90
2023-05-01T19:51:32.505Z,12.33
2023-05-01T19:56:34.647Z,12.80
2023-05-01T20:01:36.888Z,15.17
2023-05-01T20:06:38.722Z,11.27
2023-05-01T20:11:40.402Z,11.60
2023-05-01T20:16:42.110Z,13.17
2023-05-01T20:21:43.856Z,11.23
2023-05-01T20:26:45.526Z,12.77
2023-05-01T20:31:48.551Z,12.73
2023-05-01T20:36:50.370Z,10.87
2023-05-01T20:41:52.060Z,12.43
2023-05-01T20:46:54.348Z,11.83
2023-05-01T20:51:58.387Z,13.73
2023-05-01T20:57:01.847Z,15.10
2023-05-01T21:02:04.730Z,12.30
2023-05-01T21:07:06.531Z,13.33
2023-05-01T21:12:08.834Z,15.53
2023-05-01T21:17:11.370Z,10.23
2023-05-01T21:22:20.038Z,10.83
2023-05-01T21:27:24.109Z,15.97
2023-05-01T21:32:32.438Z,12.77
2023-05-01T21:37:34.263Z,14.70
2023-05-01T21:42:38.049Z,14.57
2023-05-01T21:47:44.530Z,13.10
2023-05-01T21:52:48.285Z,12.40
2023-05-01T21:57:50.269Z,15.07
2023-05-01T22:02:52.153Z,13.10
2023-05-01T22:07:54.302Z,15.73
2023-05-01T22:12:56.161Z,12.03
2023-05-01T22:17:57.881Z,12.43
2023-05-01T22:22:59.621Z,10.27
2023-05-01T22:28:04.287Z,14.43
2023-05-01T22:33:06.140Z,15.40
2023-05-01T22:38:08.300Z,12.27
2023-05-01T22:43:10.400Z,11.67
2023-05-01T22:48:12.416Z,14.17
2023-05-01T22:53:14.237Z,12.03
2023-05-01T22:58:15.912Z,11.23
2023-05-01T23:03:17.805Z,13.47
2023-05-01T23:08:19.605Z,18.33
2023-05-01T23:13:23.544Z,13.17
2023-05-01T23:18:31.894Z,12.80
2023-05-01T23:23:35.338Z,11.20
2023-05-01T23:54:07.225Z,10.57
2023-05-01T23:59:08.866Z,10.93
